TimeMST,TemperatureF,Dew PointF,Humidity,Sea Level PressureIn,VisibilityMPH,Wind Direction,Wind SpeedMPH,Gust SpeedMPH,PrecipitationIn,Events,Conditions,WindDirDegrees,DateUTC
12:53 AM,27.0,16.0,63,30.18,10.0,WSW,6.9,-,N/A,,Overcast,250,2012-12-10 07:53:00
1:53 AM,28.0,17.1,63,30.13,10.0,WSW,5.8,-,N/A,,Overcast,240,2012-12-10 08:53:00
2:53 AM,28.0,17.1,63,30.13,10.0,North,4.6,-,N/A,,Overcast,350,2012-12-10 09:53:00
3:53 AM,28.0,18.0,66,30.12,10.0,West,6.9,-,N/A,,Overcast,260,2012-12-10 10:53:00
4:53 AM,28.0,19.0,69,30.11,10.0,West,6.9,-,N/A,,Overcast,260,2012-12-10 11:53:00
5:53 AM,30.2,19.4,64,29.89,10.0,West,12.7,-,N/A,,Scattered Clouds,270,2012-12-10 12:53:00
6:53 AM,28.9,19.9,69,30.08,5.0,Calm,Calm,-,N/A,,Haze,0,2012-12-10 13:53:00
7:18 AM,30.2,21.2,69,29.91,5.0,West,19.6,23.0,N/A,Snow,Light Snow,270,2012-12-10 14:18:00
7:53 AM,32.0,19.0,59,30.07,10.0,West,21.9,27.6,0.00,,Overcast,270,2012-12-10 14:53:00
8:53 AM,30.9,19.0,61,30.08,10.0,West,21.9,33.4,N/A,,Mostly Cloudy,270,2012-12-10 15:53:00
9:53 AM,30.9,18.0,59,30.11,10.0,West,20.7,29.9,N/A,,Mostly Cloudy,280,2012-12-10 16:53:00
10:53 AM,32.0,19.0,59,30.12,10.0,West,24.2,32.2,N/A,,Clear,270,2012-12-10 17:53:00
11:53 AM,33.1,18.0,54,30.12,10.0,West,20.7,33.4,N/A,,Clear,280,2012-12-10 18:53:00
12:53 PM,33.1,17.1,52,30.10,10.0,West,26.5,35.7,N/A,,Clear,270,2012-12-10 19:53:00
1:53 PM,33.1,18.0,54,30.08,10.0,West,19.6,35.7,N/A,,Clear,280,2012-12-10 20:53:00
2:53 PM,33.1,17.1,52,30.06,10.0,West,17.3,25.3,N/A,,Partly Cloudy,280,2012-12-10 21:53:00
3:53 PM,33.1,18.0,54,30.08,10.0,West,15.0,24.2,N/A,,Overcast,260,2012-12-10 22:53:00
4:53 PM,30.9,21.0,67,30.08,10.0,West,17.3,-,N/A,,Mostly Cloudy,270,2012-12-10 23:53:00
5:53 PM,32.0,21.0,64,30.09,10.0,West,17.3,-,N/A,,Mostly Cloudy,260,2012-12-11 00:53:00
6:53 PM,30.9,19.9,64,30.09,10.0,West,17.3,-,N/A,,Mostly Cloudy,270,2012-12-11 01:53:00
7:53 PM,32.0,19.0,59,30.08,10.0,West,20.7,25.3,N/A,,Scattered Clouds,270,2012-12-11 02:53:00
8:53 PM,32.0,19.9,61,30.07,10.0,West,17.3,-,N/A,,Mostly Cloudy,280,2012-12-11 03:53:00
9:53 PM,33.1,21.0,61,30.05,10.0,West,17.3,25.3,N/A,,Overcast,270,2012-12-11 04:53:00
10:53 PM,33.1,21.9,64,30.04,10.0,West,18.4,27.6,N/A,,Overcast,270,2012-12-11 05:53:00
11:53 PM,33.1,23.0,66,30.04,10.0,West,5.8,-,N/A,,Overcast,260,2012-12-11 06:53:00